Time;durP1;ratioP1;P1;durP2;ratioP2;P2;SDS_P1;SDS_P2;PMS_P1;PMS_P2;Temp;Humidity;BMP_temperature;BMP_pressure;BME280_temperature;BME280_humidity;BME280_pressure;Samples;Min_cycle;Max_cycle;Signal;HPM_P1;HPM_P2
2022/03/17 00:02:03;;;;;;;25.90;18.40;;;;;;;9.63;63.39;100945.91;5128448;27;20509;-66
2022/03/17 00:04:30;;;;;;;29.70;20.43;;;;;;;9.56;63.73;100957.03;5123377;28;20446;-65
2022/03/17 00:06:57;;;;;;;29.30;21.57;;;;;;;9.60;63.48;100955.84;5140241;27;20448;-65
2022/03/17 00:09:24;;;;;;;25.43;18.60;;;;;;;9.53;63.75;100951.06;5143951;27;20455;-65
2022/03/17 00:11:52;;;;;;;30.50;19.70;;;;;;;9.57;63.62;100957.91;5130790;27;20471;-65
2022/03/17 00:14:19;;;;;;;28.57;19.50;;;;;;;9.62;63.59;100950.41;5127585;27;20460;-65
2022/03/17 00:16:47;;;;;;;32.97;18.50;;;;;;;9.50;63.78;100941.50;5124157;27;20442;-65
2022/03/17 00:19:13;;;;;;;27.10;18.40;;;;;;;9.55;63.61;100944.66;5138735;27;20483;-66
2022/03/17 00:21:40;;;;;;;23.57;18.17;;;;;;;9.53;63.64;100951.06;5123431;27;20487;-65
2022/03/17 00:24:08;;;;;;;28.07;19.30;;;;;;;9.51;63.58;100945.00;5123010;27;20519;-65
2022/03/17 00:26:35;;;;;;;23.90;17.70;;;;;;;9.54;63.74;100931.44;5126436;27;20533;-65
2022/03/17 00:29:03;;;;;;;31.07;18.80;;;;;;;9.48;63.56;100943.44;5122642;27;20477;-67
2022/03/17 00:31:30;;;;;;;24.27;16.90;;;;;;;9.56;63.56;100941.00;5123071;27;20470;-66
2022/03/17 00:33:58;;;;;;;25.63;16.90;;;;;;;9.55;63.40;100936.66;5123562;27;20945;-67
2022/03/17 00:36:24;;;;;;;26.07;17.40;;;;;;;9.58;63.20;100938.22;5111569;28;20442;-67
2022/03/17 00:38:51;;;;;;;27.17;17.07;;;;;;;9.58;63.24;100939.09;5122496;28;20438;-66
2022/03/17 00:41:18;;;;;;;24.47;17.63;;;;;;;9.57;63.24;100945.41;5127015;27;20558;-66
2022/03/17 00:43:45;;;;;;;27.13;18.60;;;;;;;9.65;63.32;100944.78;5132700;27;20439;-66
2022/03/17 00:46:11;;;;;;;23.33;17.30;;;;;;;9.61;63.29;100930.81;5128132;27;20489;-66
2022/03/17 00:48:38;;;;;;;23.93;16.10;;;;;;;9.61;63.39;100938.84;5122397;28;20439;-66
2022/03/17 00:51:06;;;;;;;21.87;16.93;;;;;;;9.64;63.02;100936.94;5134475;27;20441;-65
2022/03/17 00:53:33;;;;;;;23.27;16.67;;;;;;;9.54;63.36;100931.44;5138229;27;20501;-66
2022/03/17 00:55:59;;;;;;;25.43;17.87;;;;;;;9.64;63.34;100932.44;5133537;27;20498;-65
2022/03/17 00:58:29;;;;;;;22.90;16.57;;;;;;;9.61;63.36;100930.00;5141264;27;20462;-65
2022/03/17 01:00:55;;;;;;;26.20;16.90;;;;;;;9.60;63.41;100922.97;5140397;27;20994;-65
2022/03/17 01:03:22;;;;;;;25.13;15.53;;;;;;;9.63;63.35;100930.72;5133885;27;20979;-65
2022/03/17 01:05:49;;;;;;;23.73;17.23;;;;;;;9.66;63.25;100930.50;5122992;27;20490;-65
2022/03/17 01:08:17;;;;;;;22.27;15.63;;;;;;;9.72;63.07;100931.81;5122463;28;21165;-65
2022/03/17 01:10:44;;;;;;;30.83;18.77;;;;;;;9.64;63.19;100929.75;5129919;27;20461;-66
2022/03/17 01:13:10;;;;;;;28.60;19.00;;;;;;;9.70;63.10;100925.75;5135090;27;20453;-66
2022/03/17 01:15:37;;;;;;;26.57;16.43;;;;;;;9.79;62.85;100919.69;5121599;28;20454;-66
2022/03/17 01:18:05;;;;;;;22.67;16.77;;;;;;;9.68;62.95;100927.69;5124926;27;20438;-66
2022/03/17 01:20:32;;;;;;;24.30;16.77;;;;;;;9.66;62.95;100918.97;5142348;27;20445;-66
2022/03/17 01:22:58;;;;;;;24.60;16.40;;;;;;;9.67;63.04;100909.97;5133268;27;20816;-66
2022/03/17 01:25:27;;;;;;;28.53;17.87;;;;;;;9.72;62.85;100908.66;5124544;27;20431;-66
2022/03/17 01:27:53;;;;;;;25.53;18.30;;;;;;;9.71;63.09;100912.28;5141812;27;20477;-65
2022/03/17 01:30:21;;;;;;;25.83;17.50;;;;;;;9.71;62.76;100912.28;5126991;27;20485;-65
2022/03/17 01:32:47;;;;;;;26.33;17.00;;;;;;;9.67;63.31;100908.16;5122083;27;20442;-65
2022/03/17 01:35:14;;;;;;;24.53;17.77;;;;;;;9.59;63.26;100906.06;5121319;28;20460;-66
2022/03/17 01:37:41;;;;;;;27.60;19.20;;;;;;;9.67;63.27;100900.16;5130137;27;20445;-66
2022/03/17 01:40:08;;;;;;;26.27;17.50;;;;;;;9.70;63.39;100910.59;5138037;27;20506;-66
2022/03/17 01:42:37;;;;;;;23.57;18.40;;;;;;;9.64;63.41;100908.41;5122736;27;20505;-65
2022/03/17 01:45:05;;;;;;;24.43;17.70;;;;;;;9.65;63.53;100902.06;5122177;27;20484;-65
2022/03/17 01:47:33;;;;;;;25.80;17.10;;;;;;;9.61;63.38;100909.47;5121578;27;20423;-66
2022/03/17 01:50:03;;;;;;;23.53;17.53;;;;;;;9.69;63.39;100903.56;5120623;28;20493;-66
2022/03/17 01:52:30;;;;;;;27.23;17.77;;;;;;;9.67;63.29;100894.81;5121567;28;20433;-66
2022/03/17 01:54:57;;;;;;;25.77;18.00;;;;;;;9.63;63.40;100893.34;5122100;27;20464;-66
2022/03/17 01:57:24;;;;;;;24.53;17.67;;;;;;;9.69;63.46;100895.56;5127739;27;20465;-66
2022/03/17 01:59:53;;;;;;;23.03;18.27;;;;;;;9.72;63.27;100881.09;5139726;27;20837;-66
2022/03/17 02:02:20;;;;;;;26.10;17.30;;;;;;;9.66;63.10;100878.91;5140192;27;20491;-66
2022/03/17 02:04:48;;;;;;;28.13;17.00;;;;;;;9.72;63.01;100876.63;5120662;27;20442;-66
2022/03/17 02:07:15;;;;;;;22.33;17.40;;;;;;;9.65;62.97;100870.03;5104981;28;20442;-66
2022/03/17 02:09:43;;;;;;;25.73;17.40;;;;;;;9.79;62.83;100876.97;5121494;27;20454;-65
2022/03/17 02:14:59;;;;;;;27.03;18.47;;;;;;;9.67;63.31;100867.25;5120865;27;20521;-66
2022/03/17 02:17:27;;;;;;;24.87;17.40;;;;;;;9.68;63.13;100856.47;5121948;28;20560;-66
2022/03/17 02:19:54;;;;;;;24.33;16.87;;;;;;;9.64;63.03;100856.84;5125077;28;20452;-66
2022/03/17 02:22:22;;;;;;;23.70;16.93;;;;;;;9.74;63.15;100853.31;5141734;27;20485;-66
2022/03/17 02:27:41;;;;;;;27.13;17.80;;;;;;;9.67;62.96;100852.09;5108530;28;20456;-65
2022/03/17 02:30:09;;;;;;;22.83;17.03;;;;;;;9.72;62.94;100854.41;5122127;28;20454;-67
2022/03/17 02:32:36;;;;;;;23.50;17.00;;;;;;;9.72;62.78;100857.94;5120991;28;20445;-66
2022/03/17 02:35:08;;;;;;;26.77;18.87;;;;;;;9.89;62.42;100842.38;5139978;27;21761;-66
2022/03/17 02:37:35;;;;;;;29.53;17.73;;;;;;;9.83;62.28;100856.25;5139168;28;20452;-66
2022/03/17 02:40:16;;;;;;;27.30;17.50;;;;;;;9.89;62.06;100840.56;5130953;27;20450;-66
2022/03/17 02:42:45;;;;;;;26.83;18.40;;;;;;;9.98;61.79;100828.28;5121818;28;20910;-66
2022/03/17 02:45:12;;;;;;;25.63;18.57;;;;;;;9.89;62.11;100827.22;5129170;28;20498;-66
2022/03/17 02:47:40;;;;;;;22.13;16.17;;;;;;;9.96;62.15;100827.56;5139618;28;20445;-66
2022/03/17 02:50:10;;;;;;;24.63;17.30;;;;;;;9.90;61.95;100814.72;5135763;28;21013;-66
2022/03/17 02:52:37;;;;;;;22.03;15.90;;;;;;;10.04;61.88;100817.13;5120302;28;20963;-66
2022/03/17 02:55:06;;;;;;;22.30;16.27;;;;;;;9.96;61.75;100816.88;5120723;28;20438;-66
2022/03/17 02:57:33;;;;;;;24.27;18.67;;;;;;;10.01;61.72;100805.84;5127243;28;20445;-66
2022/03/17 02:59:59;;;;;;;26.27;17.93;;;;;;;9.99;61.38;100798.78;5128555;27;20474;-66
2022/03/17 03:02:26;;;;;;;26.03;19.17;;;;;;;10.09;61.22;100801.59;5120096;28;20470;-66
2022/03/17 03:04:53;;;;;;;24.63;18.00;;;;;;;10.12;61.24;100812.03;5121359;28;20449;-67
2022/03/17 03:07:19;;;;;;;23.77;17.90;;;;;;;10.23;61.03;100808.47;5127962;28;20483;-66
2022/03/17 03:09:46;;;;;;;24.20;18.07;;;;;;;10.08;61.07;100805.22;5138375;28;20532;-66
2022/03/17 03:12:14;;;;;;;24.97;18.10;;;;;;;10.15;61.46;100801.06;5137943;28;20440;-65
2022/03/17 03:14:41;;;;;;;24.37;18.10;;;;;;;10.09;61.02;100796.25;5121294;28;20514;-65
2022/03/17 03:17:08;;;;;;;23.63;18.30;;;;;;;10.26;60.49;100799.34;5140567;27;20441;-65
2022/03/17 03:19:35;;;;;;;23.33;18.20;;;;;;;10.26;60.30;100788.66;5134820;27;20472;-65
2022/03/17 03:22:01;;;;;;;27.03;19.33;;;;;;;10.35;60.12;100798.66;5133690;28;20969;-66
2022/03/17 03:24:28;;;;;;;25.13;19.10;;;;;;;10.42;59.57;100799.00;5133302;28;20454;-65
2022/03/17 03:26:55;;;;;;;24.23;18.67;;;;;;;10.36;59.50;100790.50;5120166;28;20439;-66
2022/03/17 03:29:23;;;;;;;23.97;17.80;;;;;;;10.47;59.42;100808.34;5123864;28;20481;-65
2022/03/17 03:31:51;;;;;;;24.20;19.00;;;;;;;10.51;59.27;100799.06;5121409;27;20445;-66
2022/03/17 03:34:18;;;;;;;27.40;19.23;;;;;;;10.55;59.06;100800.53;5120746;28;20484;-66
2022/03/17 03:39:29;;;;;;;26.47;20.53;;;;;;;10.49;58.43;100805.53;5140258;27;20436;-65
2022/03/17 03:41:56;;;;;;;26.37;18.90;;;;;;;10.57;58.70;100797.72;5132874;27;20569;-65
2022/03/17 03:44:24;;;;;;;28.33;20.30;;;;;;;10.61;58.01;100801.84;5143590;27;20518;-66
2022/03/17 03:46:51;;;;;;;25.63;19.47;;;;;;;10.70;57.69;100805.56;5139232;27;20480;-66
2022/03/17 03:49:18;;;;;;;24.00;19.53;;;;;;;10.62;58.18;100810.72;5122820;27;20540;-66
2022/03/17 03:51:44;;;;;;;25.90;18.97;;;;;;;10.62;58.35;100806.19;5137678;27;20872;-65
2022/03/17 03:54:15;;;;;;;27.47;19.87;;;;;;;10.54;57.92;100828.22;5123525;27;20507;-65
2022/03/17 03:56:42;;;;;;;28.30;18.70;;;;;;;10.59;57.99;100822.53;5135959;27;20441;-65
2022/03/17 03:59:09;;;;;;;27.13;20.23;;;;;;;10.61;57.79;100822.41;5143775;27;20926;-66
2022/03/17 04:01:37;;;;;;;26.53;19.50;;;;;;;10.60;57.67;100828.72;5139979;27;20469;-66
2022/03/17 04:04:04;;;;;;;26.00;19.60;;;;;;;10.59;58.07;100832.34;5123312;28;20454;-66
2022/03/17 04:06:31;;;;;;;24.40;19.10;;;;;;;10.68;57.82;100828.94;5123777;27;20462;-66
2022/03/17 04:08:59;;;;;;;23.83;19.20;;;;;;;10.59;57.91;100835.88;5123225;27;20454;-66
2022/03/17 04:11:25;;;;;;;24.87;19.23;;;;;;;10.54;57.84;100822.88;5138462;27;20446;-66
2022/03/17 04:13:52;;;;;;;29.67;21.80;;;;;;;10.49;57.84;100830.44;5123556;27;20450;-66
2022/03/17 04:16:19;;;;;;;27.33;21.03;;;;;;;10.69;57.50;100838.63;5123333;27;20481;-67
2022/03/17 04:18:47;;;;;;;25.83;18.83;;;;;;;10.53;57.78;100842.56;5123085;27;20434;-66
2022/03/17 04:21:13;;;;;;;28.73;20.57;;;;;;;10.54;57.94;100841.59;5122943;28;20499;-67
2022/03/17 04:23:40;;;;;;;27.83;20.03;;;;;;;10.57;57.62;100845.84;5126324;27;20474;-66
2022/03/17 04:26:07;;;;;;;26.40;19.60;;;;;;;10.50;57.57;100836.63;5128480;27;20433;-66
2022/03/17 04:28:34;;;;;;;30.53;20.83;;;;;;;10.69;57.43;100844.84;5143230;27;20477;-66
2022/03/17 04:31:01;;;;;;;25.43;20.27;;;;;;;10.69;57.35;100847.53;5140651;27;20462;-66
2022/03/17 04:33:27;;;;;;;26.87;20.57;;;;;;;10.57;57.39;100847.66;5141287;27;20507;-65
2022/03/17 04:35:55;;;;;;;25.13;20.37;;;;;;;10.60;57.48;100850.94;5124121;27;21155;-66
2022/03/17 04:38:22;;;;;;;27.40;21.57;;;;;;;10.53;57.78;100852.41;5132656;27;20453;-66
2022/03/17 04:40:49;;;;;;;25.00;19.30;;;;;;;10.64;57.15;100854.22;5143429;27;20421;-66
2022/03/17 04:43:17;;;;;;;29.20;21.47;;;;;;;10.58;57.63;100855.56;5141464;27;20476;-66
2022/03/17 04:45:45;;;;;;;28.40;21.63;;;;;;;10.67;57.30;100856.63;5140655;27;20504;-66
2022/03/17 04:48:11;;;;;;;26.20;19.93;;;;;;;10.56;57.69;100860.19;5117336;27;20443;-66
2022/03/17 04:50:38;;;;;;;24.83;20.17;;;;;;;10.70;57.17;100861.75;5118939;27;20450;-66
2022/03/17 04:55:51;;;;;;;25.90;21.17;;;;;;;10.61;57.33;100862.50;5142483;27;20432;-67
2022/03/17 04:58:17;;;;;;;25.90;20.47;;;;;;;10.64;57.50;100867.56;5140037;27;20497;-67
2022/03/17 05:00:44;;;;;;;27.77;21.17;;;;;;;10.61;57.50;100862.50;5140954;27;20503;-66
2022/03/17 05:03:11;;;;;;;26.13;20.30;;;;;;;10.59;57.39;100864.44;5138535;27;20476;-65
2022/03/17 05:05:38;;;;;;;27.73;20.47;;;;;;;10.54;57.32;100873.69;5140172;27;20453;-66
2022/03/17 05:08:07;;;;;;;29.97;20.27;;;;;;;10.63;57.26;100868.56;5124700;27;20458;-66
2022/03/17 05:10:35;;;;;;;29.13;20.67;;;;;;;10.71;57.22;100872.31;5129909;27;20457;-66
2022/03/17 05:13:03;;;;;;;26.80;21.27;;;;;;;10.58;57.21;100878.78;5121402;27;20529;-66
2022/03/17 05:15:30;;;;;;;28.83;22.93;;;;;;;10.62;57.15;100885.56;5119070;27;20462;-66
2022/03/17 05:17:56;;;;;;;25.93;20.70;;;;;;;10.56;57.13;100886.94;5131022;27;20473;-66
2022/03/17 05:20:23;;;;;;;27.63;21.50;;;;;;;10.64;56.95;100880.94;5128004;27;20446;-66
2022/03/17 05:22:50;;;;;;;30.17;20.57;;;;;;;10.67;56.75;100878.03;5134414;27;20512;-67
2022/03/17 05:25:18;;;;;;;30.50;21.63;;;;;;;10.69;56.82;100884.09;5131652;27;20453;-66
2022/03/17 05:27:46;;;;;;;26.40;21.80;;;;;;;10.78;57.02;100886.03;5119832;28;20514;-66
2022/03/17 05:30:14;;;;;;;31.43;20.73;;;;;;;10.71;56.67;100884.81;5120551;27;20504;-66
2022/03/17 05:32:41;;;;;;;29.07;23.03;;;;;;;10.61;56.58;100884.75;5120655;28;20430;-66
2022/03/17 05:35:09;;;;;;;29.23;21.90;;;;;;;10.83;56.73;100897.22;5130819;27;20458;-72
2022/03/17 05:37:36;;;;;;;27.97;21.50;;;;;;;10.57;56.70;100890.44;5120665;27;20474;-70
2022/03/17 05:40:04;;;;;;;28.67;21.77;;;;;;;10.60;56.88;100882.19;5119449;28;20471;-72
2022/03/17 05:42:34;;;;;;;26.50;21.00;;;;;;;10.71;56.69;100895.50;5117199;28;20569;-72
2022/03/17 05:45:00;;;;;;;30.23;23.80;;;;;;;10.55;56.73;100887.91;5119455;28;20446;-68
2022/03/17 05:47:34;;;;;;;31.37;22.73;;;;;;;10.63;56.73;100898.81;5119476;27;20455;-71
2022/03/17 05:50:02;;;;;;;27.80;22.70;;;;;;;10.61;56.46;100911.47;5119626;27;20813;-71
2022/03/17 05:52:39;;;;;;;27.40;20.57;;;;;;;10.72;56.25;100914.09;5136653;27;20490;-72
2022/03/17 05:55:07;;;;;;;27.83;22.47;;;;;;;10.63;56.47;100922.88;5140712;27;20478;-70
2022/03/17 05:57:35;;;;;;;28.50;21.70;;;;;;;10.84;56.15;100912.25;5128946;27;20454;-70
2022/03/17 06:00:04;;;;;;;30.00;21.30;;;;;;;10.69;56.25;100918.84;5104153;28;20456;-69
2022/03/17 06:02:31;;;;;;;28.10;20.70;;;;;;;10.73;56.40;100934.53;5123433;27;20473;-70
2022/03/17 06:04:58;;;;;;;33.13;23.37;;;;;;;10.81;56.69;100935.75;5108299;27;20461;-72
2022/03/17 06:07:25;;;;;;;27.37;20.50;;;;;;;10.70;56.78;100947.31;5119696;28;20443;-70
2022/03/17 06:09:51;;;;;;;28.87;22.57;;;;;;;10.68;56.41;100944.75;5120392;28;21060;-71
2022/03/17 06:12:18;;;;;;;29.70;23.23;;;;;;;10.82;56.30;100940.97;5120010;28;20435;-71
2022/03/17 06:14:47;;;;;;;31.00;22.83;;;;;;;10.76;56.32;100949.47;5115978;27;21247;-64
2022/03/17 06:17:13;;;;;;;29.80;22.33;;;;;;;10.79;56.24;100943.03;5124806;27;20479;-65
2022/03/17 06:19:40;;;;;;;28.40;20.90;;;;;;;10.87;56.21;100953.97;5115556;27;20498;-64
2022/03/17 06:22:07;;;;;;;29.37;22.70;;;;;;;10.79;55.59;100951.91;5120232;28;20442;-64
2022/03/17 06:24:33;;;;;;;28.17;22.00;;;;;;;10.83;55.96;100953.38;5118583;28;20450;-64
2022/03/17 06:27:01;;;;;;;27.67;22.23;;;;;;;10.90;55.91;100957.25;5119487;28;20546;-63
2022/03/17 06:29:27;;;;;;;29.67;23.20;;;;;;;10.83;56.05;100964.06;5126809;28;21174;-65
2022/03/17 06:31:56;;;;;;;30.63;22.83;;;;;;;10.79;56.57;100959.94;5139871;28;20444;-64
2022/03/17 06:34:23;;;;;;;30.07;22.23;;;;;;;10.95;55.69;100964.03;5138086;28;20839;-63
2022/03/17 06:36:50;;;;;;;30.50;23.73;;;;;;;11.00;55.64;100977.88;5139724;28;20429;-63
2022/03/17 06:39:16;;;;;;;30.83;23.33;;;;;;;11.04;55.93;100985.56;5139464;28;20474;-64
2022/03/17 06:41:43;;;;;;;32.27;22.90;;;;;;;10.90;56.04;100984.00;5138993;28;20464;-64
2022/03/17 06:44:10;;;;;;;30.43;23.13;;;;;;;10.88;56.06;100987.75;5138930;28;20469;-64
2022/03/17 06:46:36;;;;;;;26.93;22.13;;;;;;;10.98;55.95;100990.53;5139139;28;21111;-64
2022/03/17 06:49:04;;;;;;;31.60;23.20;;;;;;;10.98;55.83;100987.88;5138657;28;20919;-64
2022/03/17 06:51:31;;;;;;;29.20;23.40;;;;;;;10.96;55.92;101000.53;5139757;28;20456;-64
2022/03/17 06:53:58;;;;;;;28.10;22.93;;;;;;;11.01;56.19;101003.69;5139500;28;20460;-64
2022/03/17 06:56:24;;;;;;;32.20;22.37;;;;;;;11.08;56.73;101008.41;5140231;28;20421;-64
2022/03/17 06:58:51;;;;;;;34.47;23.17;;;;;;;11.06;57.09;101009.50;5139442;28;21015;-63
2022/03/17 07:01:18;;;;;;;30.83;23.90;;;;;;;10.76;59.05;101028.88;5139414;28;20457;-64
2022/03/17 07:03:54;;;;;;;29.93;23.67;;;;;;;10.87;57.89;101031.56;5139753;28;21333;-64
2022/03/17 07:06:22;;;;;;;31.30;26.17;;;;;;;10.94;58.06;101027.41;5139956;28;20441;-64
2022/03/17 07:08:49;;;;;;;34.17;25.33;;;;;;;10.76;59.51;101037.75;5145303;27;20452;-64
2022/03/17 07:11:15;;;;;;;31.83;25.10;;;;;;;10.82;60.91;101055.16;5162654;27;20424;-63
2022/03/17 07:13:42;;;;;;;37.50;26.80;;;;;;;10.89;62.42;101061.69;5161129;27;20457;-63
2022/03/17 07:16:10;;;;;;;33.83;25.13;;;;;;;10.92;62.37;101064.13;5143291;27;20478;-64
2022/03/17 07:18:37;;;;;;;35.20;27.00;;;;;;;10.69;64.27;101061.47;5143295;27;20429;-63
2022/03/17 07:21:04;;;;;;;34.80;27.43;;;;;;;10.64;65.14;101079.72;5143804;27;20479;-64
2022/03/17 07:23:32;;;;;;;37.30;28.10;;;;;;;10.54;66.74;101086.75;5143112;27;20485;-64
2022/03/17 07:25:59;;;;;;;35.77;26.23;;;;;;;10.46;66.59;101094.50;5143074;27;20433;-64
2022/03/17 07:28:25;;;;;;;31.13;25.30;;;;;;;10.48;66.46;101098.75;5142813;27;20477;-64
2022/03/17 07:30:52;;;;;;;35.90;26.03;;;;;;;10.21;67.91;101104.38;5142434;27;20449;-63
2022/03/17 07:33:19;;;;;;;43.33;28.73;;;;;;;10.13;69.52;101104.94;5143205;27;20449;-64
2022/03/17 07:35:46;;;;;;;42.50;30.77;;;;;;;10.42;69.29;101109.94;5143581;27;20627;-64
2022/03/17 07:38:12;;;;;;;38.90;27.63;;;;;;;10.23;69.82;101110.47;5142727;27;20502;-64
2022/03/17 07:40:41;;;;;;;36.10;26.30;;;;;;;10.13;70.60;101115.63;5143181;27;20433;-64
2022/03/17 07:43:08;;;;;;;44.67;27.57;;;;;;;10.23;71.44;101122.97;5142851;27;20484;-63
2022/03/17 07:45:35;;;;;;;43.17;31.23;;;;;;;10.25;72.43;101129.06;5142666;27;20449;-64
2022/03/17 07:48:02;;;;;;;38.87;28.37;;;;;;;9.93;73.18;101127.84;5142553;27;20422;-63
2022/03/17 07:50:28;;;;;;;40.60;30.50;;;;;;;10.06;73.99;101130.44;5143065;27;20471;-64
2022/03/17 07:52:55;;;;;;;41.17;30.80;;;;;;;10.08;74.31;101138.34;5142877;27;20488;-63
2022/03/17 07:55:23;;;;;;;43.77;30.97;;;;;;;9.94;74.78;101142.03;5142957;27;21102;-64
2022/03/17 07:57:52;;;;;;;46.03;30.70;;;;;;;9.91;75.53;101150.28;5141927;27;20437;-64
2022/03/17 08:00:19;;;;;;;42.10;31.30;;;;;;;9.96;76.26;101156.13;5142253;27;20498;-63
2022/03/17 08:02:46;;;;;;;45.83;32.37;;;;;;;9.85;77.38;101148.91;5142391;27;20657;-64
2022/03/17 08:05:14;;;;;;;49.47;33.87;;;;;;;9.83;78.08;101163.38;5142280;27;20448;-64
2022/03/17 08:07:41;;;;;;;50.23;34.90;;;;;;;9.85;78.10;101161.44;5142695;27;20445;-64
2022/03/17 08:10:09;;;;;;;50.87;35.87;;;;;;;9.60;78.74;101161.41;5159197;27;20428;-64
2022/03/17 08:12:36;;;;;;;46.07;33.17;;;;;;;9.82;78.78;101154.47;5163483;27;20468;-64
2022/03/17 08:15:06;;;;;;;49.93;33.13;;;;;;;9.77;79.47;101164.66;5146598;27;20464;-64
2022/03/17 08:17:33;;;;;;;52.90;36.90;;;;;;;9.66;79.87;101169.94;5142423;27;20426;-64
2022/03/17 08:19:59;;;;;;;47.47;34.10;;;;;;;9.77;80.21;101165.53;5141299;27;21049;-63
2022/03/17 08:22:26;;;;;;;47.60;33.87;;;;;;;10.07;79.40;101172.22;5142101;27;20680;-63
2022/03/17 08:24:53;;;;;;;53.80;37.13;;;;;;;10.13;79.46;101174.41;5142010;27;20643;-64
2022/03/17 08:27:20;;;;;;;52.90;35.63;;;;;;;10.02;80.24;101176.22;5141832;27;20506;-63
2022/03/17 08:29:48;;;;;;;54.97;34.93;;;;;;;9.87;80.98;101186.22;5140679;27;20477;-64
2022/03/17 08:32:16;;;;;;;54.53;36.27;;;;;;;9.85;81.85;101191.66;5141911;27;20436;-64
2022/03/17 08:34:43;;;;;;;52.93;36.90;;;;;;;9.91;81.14;101193.00;5134294;27;21064;-63
2022/03/17 08:37:10;;;;;;;55.00;35.90;;;;;;;10.06;81.52;101207.91;5121181;28;20449;-63
2022/03/17 08:39:37;;;;;;;54.13;37.43;;;;;;;9.82;82.57;101202.56;5121715;28;20446;-63
2022/03/17 08:42:04;;;;;;;50.80;36.10;;;;;;;9.93;82.48;101210.66;5120880;28;20442;-64
2022/03/17 08:44:31;;;;;;;57.40;38.30;;;;;;;9.79;83.41;101218.78;5119188;28;20863;-64
2022/03/17 08:49:43;;;;;;;47.37;33.90;;;;;;;9.70;84.11;101239.00;5120666;28;20439;-63
2022/03/17 08:52:10;;;;;;;46.10;31.97;;;;;;;9.92;84.30;101240.16;5120955;28;20446;-63
2022/03/17 08:54:37;;;;;;;45.53;31.97;;;;;;;9.75;84.79;101257.38;5120452;28;20438;-63
2022/03/17 08:57:05;;;;;;;45.63;31.00;;;;;;;9.76;84.89;101267.97;5123887;27;20476;-63
2022/03/17 08:59:34;;;;;;;40.17;29.60;;;;;;;9.58;85.42;101274.59;5124986;27;20442;-63
2022/03/17 09:02:03;;;;;;;27.00;19.90;;;;;;;9.45;83.44;101284.47;5132308;27;20508;-63
2022/03/17 09:04:30;;;;;;;24.83;17.27;;;;;;;9.55;82.08;101285.53;5138794;27;20515;-64
2022/03/17 09:07:00;;;;;;;21.90;16.13;;;;;;;9.48;81.39;101297.56;5141867;27;20453;-64
2022/03/17 09:09:27;;;;;;;18.83;13.67;;;;;;;9.29;80.68;101300.66;5130268;27;20936;-64
2022/03/17 09:11:54;;;;;;;18.93;12.97;;;;;;;9.32;80.53;101320.03;5120934;28;20434;-63
2022/03/17 09:14:21;;;;;;;18.20;14.80;;;;;;;9.34;79.88;101318.09;5119601;28;20454;-64
2022/03/17 09:16:48;;;;;;;20.97;14.63;;;;;;;9.36;80.25;101320.66;5119806;28;20434;-64
2022/03/17 09:19:15;;;;;;;26.87;16.63;;;;;;;9.35;80.09;101329.63;5119553;28;20994;-64
2022/03/17 09:21:42;;;;;;;16.70;13.90;;;;;;;9.32;80.04;101335.16;5120763;28;20482;-64
2022/03/17 09:24:10;;;;;;;17.37;14.03;;;;;;;9.22;79.58;101340.28;5119899;28;20512;-64
2022/03/17 09:26:36;;;;;;;18.70;14.43;;;;;;;9.14;79.86;101353.28;5120257;28;20491;-64
2022/03/17 09:29:04;;;;;;;19.97;15.60;;;;;;;9.22;79.65;101350.97;5132049;27;20520;-64
2022/03/17 09:31:30;;;;;;;22.60;17.13;;;;;;;9.14;79.45;101347.94;5139383;27;20459;-64
2022/03/17 09:33:58;;;;;;;20.63;14.50;;;;;;;8.98;80.04;101359.66;5139586;27;20450;-64
2022/03/17 09:36:25;;;;;;;20.27;15.10;;;;;;;9.04;80.13;101367.25;5137003;27;20449;-64
2022/03/17 09:41:35;;;;;;;21.00;15.57;;;;;;;9.20;79.09;101366.19;5139834;27;20858;-64
2022/03/17 09:44:02;;;;;;;25.63;15.43;;;;;;;9.11;79.40;101380.16;5139340;27;20489;-63
2022/03/17 09:46:30;;;;;;;23.90;17.40;;;;;;;9.19;79.00;101388.53;5140430;27;20453;-63
2022/03/17 09:48:57;;;;;;;19.50;15.20;;;;;;;8.98;79.43;101388.16;5140493;27;20433;-64
2022/03/17 09:51:26;;;;;;;21.70;16.03;;;;;;;8.91;79.65;101387.69;5140463;27;20452;-63
2022/03/17 09:53:54;;;;;;;15.60;13.23;;;;;;;8.93;79.90;101395.59;5140254;27;20446;-63
2022/03/17 09:56:23;;;;;;;21.70;12.27;;;;;;;8.88;79.25;101411.06;5140537;27;20434;-63
2022/03/17 09:58:51;;;;;;;26.63;12.27;;;;;;;8.78;79.97;101414.31;5140675;27;20449;-63
2022/03/17 10:01:20;;;;;;;19.37;12.00;;;;;;;8.81;79.32;101421.25;5139734;27;20441;-63
2022/03/17 10:03:47;;;;;;;21.43;12.57;;;;;;;9.10;78.43;101419.34;5140361;27;20538;-63
2022/03/17 10:06:14;;;;;;;21.80;12.20;;;;;;;9.02;78.58;101421.66;5140225;27;20440;-63
2022/03/17 10:08:42;;;;;;;16.93;11.40;;;;;;;9.17;78.07;101427.78;5144650;27;20451;-63
2022/03/17 10:11:09;;;;;;;16.83;12.77;;;;;;;9.23;77.36;101425.56;5161114;27;20425;-64
2022/03/17 10:13:45;;;;;;;12.23;10.70;;;;;;;9.15;77.10;101432.34;5158372;27;20567;-63
2022/03/17 10:16:17;;;;;;;13.80;10.30;;;;;;;9.37;76.76;101432.66;5139662;27;20492;-63
2022/03/17 10:18:45;;;;;;;17.90;10.63;;;;;;;9.24;76.78;101442.44;5139232;27;20513;-63
2022/03/17 10:21:13;;;;;;;13.37;10.00;;;;;;;9.26;76.46;101448.50;5140346;27;20460;-63
2022/03/17 10:23:49;;;;;;;16.10;10.53;;;;;;;9.49;75.93;101460.31;5139260;27;20990;-64
2022/03/17 10:26:33;;;;;;;11.50;8.57;;;;;;;9.31;75.91;101470.41;5139592;27;20435;-63
2022/03/17 10:29:05;;;;;;;16.80;8.80;;;;;;;9.45;75.38;101468.66;5138696;27;20510;-63
2022/03/17 10:31:38;;;;;;;12.23;7.80;;;;;;;9.49;74.77;101487.00;5138786;27;20830;-63
2022/03/17 10:34:05;;;;;;;15.13;9.53;;;;;;;9.72;74.01;101477.44;5139546;28;20460;-63
2022/03/17 10:36:32;;;;;;;12.00;6.90;;;;;;;9.56;73.41;101490.13;5139493;28;20469;-63
2022/03/17 10:38:59;;;;;;;11.30;7.20;;;;;;;9.67;73.77;101492.94;5138897;28;20445;-63
2022/03/17 10:41:26;;;;;;;11.17;6.90;;;;;;;9.66;73.52;101487.69;5139957;28;20434;-63
2022/03/17 10:43:59;;;;;;;7.93;6.10;;;;;;;9.69;73.22;101498.16;5138571;28;20530;-64
2022/03/17 10:46:26;;;;;;;9.47;5.07;;;;;;;9.50;72.97;101507.41;5143035;27;21133;-63
2022/03/17 10:48:58;;;;;;;8.67;4.80;;;;;;;9.67;72.10;101514.28;5138061;27;20457;-63
2022/03/17 10:51:35;;;;;;;7.30;5.03;;;;;;;9.72;71.18;101525.53;5143465;27;20441;-63
2022/03/17 10:54:04;;;;;;;7.63;4.57;;;;;;;9.66;71.75;101520.56;5134505;27;20474;-63
2022/03/17 10:56:31;;;;;;;8.77;4.43;;;;;;;9.32;72.98;101521.97;5142928;27;21007;-64
2022/03/17 10:58:59;;;;;;;12.70;4.30;;;;;;;9.59;72.39;101530.81;5142761;27;20502;-63
2022/03/17 11:01:36;;;;;;;10.30;5.07;;;;;;;9.53;72.20;101535.69;5142535;27;20453;-63
2022/03/17 11:04:04;;;;;;;15.37;5.60;;;;;;;9.51;72.53;101542.97;5139314;27;20492;-63
2022/03/17 11:06:31;;;;;;;7.90;4.50;;;;;;;9.65;71.46;101539.38;5143396;27;20441;-64
2022/03/17 11:09:00;;;;;;;6.97;4.30;;;;;;;9.66;71.45;101547.28;5150440;27;20433;-64
2022/03/17 11:11:27;;;;;;;6.77;4.50;;;;;;;9.71;71.56;101565.69;5164325;27;20567;-64
2022/03/17 11:13:56;;;;;;;5.00;3.70;;;;;;;9.53;71.79;101560.59;5144026;27;20464;-63
2022/03/17 11:16:24;;;;;;;8.80;3.90;;;;;;;9.80;71.33;101568.56;5142622;27;20818;-64
2022/03/17 11:18:51;;;;;;;7.00;3.83;;;;;;;9.67;70.75;101564.16;5142761;27;20429;-63
2022/03/17 11:21:21;;;;;;;9.17;3.83;;;;;;;9.75;70.98;101572.50;5143091;27;20683;-63
2022/03/17 11:23:56;;;;;;;8.53;3.97;;;;;;;9.75;70.84;101580.53;5143058;27;20477;-64
2022/03/17 11:26:27;;;;;;;6.93;3.50;;;;;;;9.64;70.65;101583.06;5142945;27;20496;-63
2022/03/17 11:28:59;;;;;;;8.27;4.07;;;;;;;9.71;70.50;101581.69;5142430;27;21010;-64
2022/03/17 11:31:27;;;;;;;10.47;4.07;;;;;;;9.80;70.73;101589.94;5142003;27;20453;-64
2022/03/17 11:33:58;;;;;;;5.70;3.80;;;;;;;9.93;71.25;101606.00;5129745;27;20810;-63